Time;durP1;ratioP1;P1;durP2;ratioP2;P2;SDS_P1;SDS_P2;PMS_P1;PMS_P2;Temp;Humidity;BMP_temperature;BMP_pressure;BME280_temperature;BME280_humidity;BME280_pressure;Samples;Min_cycle;Max_cycle;Signal;HPM_P1;HPM_P2
2024/02/17 00:02:03;;;;;;;0.10;0.10;;;;;;;12.35;72.70;102494.44;5073995;28;20032;-80
2024/02/17 00:04:30;;;;;;;0.10;0.10;;;;;;;12.40;72.60;102489.09;5078879;28;20097;-80
2024/02/17 00:06:56;;;;;;;0.10;0.10;;;;;;;12.42;72.57;102492.66;5076837;28;20028;-80
2024/02/17 00:09:22;;;;;;;0.20;0.20;;;;;;;12.45;73.16;102495.34;5075412;28;20047;-81
2024/02/17 00:11:49;;;;;;;0.05;0.05;;;;;;;12.43;72.50;102497.09;5081432;28;20043;-80
2024/02/17 00:14:15;;;;;;;0.10;0.10;;;;;;;12.41;72.93;102498.84;5086236;28;20048;-81
2024/02/17 00:16:42;;;;;;;0.20;0.20;;;;;;;12.45;72.36;102501.53;5080424;28;20553;-80
2024/02/17 00:19:08;;;;;;;0.28;0.28;;;;;;;12.43;72.47;102507.72;5079182;28;20037;-81
2024/02/17 00:21:35;;;;;;;0.10;0.10;;;;;;;12.42;72.23;102505.94;5083547;28;20025;-82
2024/02/17 00:24:01;;;;;;;0.10;0.10;;;;;;;12.44;72.54;102510.38;5077793;28;20071;-82
2024/02/17 00:26:28;;;;;;;0.95;0.95;;;;;;;12.43;72.41;102510.38;5083916;28;20027;-82
2024/02/17 00:28:54;;;;;;;5.05;2.72;;;;;;;12.47;72.77;102512.16;5083788;28;20032;-80
2024/02/17 00:31:20;;;;;;;0.10;0.10;;;;;;;12.44;72.46;102520.13;5084003;28;20059;-80
2024/02/17 00:33:46;;;;;;;1.45;1.45;;;;;;;12.47;72.65;102520.13;5088554;28;20084;-79
2024/02/17 00:36:13;;;;;;;0.10;0.10;;;;;;;12.51;72.72;102521.91;5087539;28;20088;-80
2024/02/17 00:38:39;;;;;;;0.10;0.10;;;;;;;12.51;72.44;102531.63;5084041;28;20057;-80
2024/02/17 00:41:06;;;;;;;0.20;0.20;;;;;;;12.50;72.35;102533.44;5085325;28;20048;-80
2024/02/17 00:43:33;;;;;;;0.10;0.10;;;;;;;12.47;72.34;102536.06;5084903;28;20032;-80
2024/02/17 00:46:00;;;;;;;0.30;0.30;;;;;;;12.50;72.24;102544.06;5081904;28;20433;-81
2024/02/17 00:48:26;;;;;;;0.20;0.20;;;;;;;12.49;72.13;102544.94;5083316;28;20052;-82
2024/02/17 00:50:53;;;;;;;0.10;0.10;;;;;;;12.55;72.20;102541.41;5087733;28;20116;-81
2024/02/17 00:53:20;;;;;;;0.10;0.10;;;;;;;12.51;71.98;102540.53;5077996;28;20033;-80
2024/02/17 00:55:46;;;;;;;0.10;0.10;;;;;;;12.49;72.38;102541.41;5076657;28;20028;-82
2024/02/17 00:58:12;;;;;;;0.10;0.10;;;;;;;12.55;72.19;102544.94;5084803;28;20021;-82
2024/02/17 01:00:39;;;;;;;0.10;0.10;;;;;;;12.49;72.53;102544.06;5083921;28;20065;-80
2024/02/17 01:03:05;;;;;;;0.45;0.45;;;;;;;12.56;72.35;102546.72;5082454;28;20080;-81
2024/02/17 01:05:31;;;;;;;0.15;0.15;;;;;;;12.51;72.37;102545.84;5080853;28;20092;-80
2024/02/17 01:07:58;;;;;;;0.10;0.10;;;;;;;12.53;71.89;102552.03;5079677;28;20028;-80
2024/02/17 01:10:24;;;;;;;0.28;0.28;;;;;;;12.56;72.35;102549.38;5070659;28;20395;-80
2024/02/17 01:12:50;;;;;;;0.30;0.30;;;;;;;12.60;72.50;102559.09;5075783;28;20035;-80
2024/02/17 01:15:16;;;;;;;0.10;0.10;;;;;;;12.50;72.35;102551.13;5076697;28;20024;-79
2024/02/17 01:17:43;;;;;;;0.10;0.10;;;;;;;12.57;71.93;102564.44;5084375;28;20040;-81
2024/02/17 01:20:09;;;;;;;5.47;1.13;;;;;;;12.55;71.94;102560.03;5088937;28;20047;-81
2024/02/17 01:22:35;;;;;;;0.10;0.10;;;;;;;12.55;72.18;102566.22;5088825;28;20059;-80
2024/02/17 01:25:02;;;;;;;0.10;0.10;;;;;;;12.55;72.33;102568.88;5087239;28;20165;-79
2024/02/17 01:27:28;;;;;;;0.32;0.32;;;;;;;12.52;72.04;102571.50;5086284;28;20021;-81
2024/02/17 01:29:54;;;;;;;0.10;0.10;;;;;;;12.56;71.73;102577.72;5083251;28;20038;-80
2024/02/17 01:32:20;;;;;;;0.20;0.20;;;;;;;12.56;72.28;102577.72;5083112;28;20042;-80
2024/02/17 01:34:47;;;;;;;0.10;0.10;;;;;;;12.53;72.31;102575.06;5078963;28;20041;-80
2024/02/17 01:37:14;;;;;;;0.10;0.10;;;;;;;12.52;71.84;102583.94;5083378;28;20033;-80
2024/02/17 01:39:40;;;;;;;0.20;0.20;;;;;;;12.52;72.00;102586.59;5078952;28;20021;-80
2024/02/17 01:42:06;;;;;;;0.10;0.10;;;;;;;12.54;71.84;102585.69;5086888;28;20041;-80
2024/02/17 01:44:33;;;;;;;0.10;0.10;;;;;;;12.51;71.90;102590.13;5085389;28;20040;-80
2024/02/17 01:46:59;;;;;;;1.60;0.47;;;;;;;12.53;72.12;102589.25;5074952;28;20039;-79
2024/02/17 01:49:25;;;;;;;0.10;0.10;;;;;;;12.54;72.30;102596.34;5081644;28;20313;-80
2024/02/17 01:51:52;;;;;;;0.10;0.10;;;;;;;12.51;71.73;102596.34;5077926;28;20030;-81
2024/02/17 01:54:18;;;;;;;0.10;0.10;;;;;;;12.51;72.11;102596.34;5080134;28;20025;-80
2024/02/17 01:56:46;;;;;;;0.20;0.20;;;;;;;12.44;71.85;102599.88;5080758;28;20092;-81
2024/02/17 01:59:13;;;;;;;0.10;0.10;;;;;;;12.47;71.87;102599.88;5074232;28;20028;-81
2024/02/17 02:01:43;;;;;;;0.30;0.30;;;;;;;12.50;72.34;102604.31;5074353;28;20051;-80
2024/02/17 02:04:10;;;;;;;0.20;0.20;;;;;;;12.44;71.81;102606.09;5066899;28;20032;-82
2024/02/17 02:06:40;;;;;;;0.10;0.10;;;;;;;12.41;72.04;102610.50;5078559;28;20458;-81
2024/02/17 02:09:06;;;;;;;0.20;0.20;;;;;;;12.45;71.87;102607.84;5078331;28;20036;-81
2024/02/17 02:11:33;;;;;;;0.10;0.10;;;;;;;12.43;72.18;102609.63;5075775;28;20024;-81
2024/02/17 02:14:16;;;;;;;0.10;0.10;;;;;;;12.49;71.91;102614.06;5070443;28;20028;-81
2024/02/17 02:16:43;;;;;;;0.10;0.10;;;;;;;12.45;72.14;102617.63;5075233;28;20119;-80
2024/02/17 02:19:10;;;;;;;0.10;0.10;;;;;;;12.49;72.04;102619.38;5070729;28;20495;-80
2024/02/17 02:21:38;;;;;;;0.20;0.20;;;;;;;12.48;72.31;102628.25;5072156;28;20033;-79
2024/02/17 02:24:05;;;;;;;0.10;0.10;;;;;;;12.49;72.03;102631.81;5068332;28;20057;-80
2024/02/17 02:26:31;;;;;;;0.10;0.10;;;;;;;12.50;72.37;102637.13;5068428;28;20104;-81
2024/02/17 02:28:58;;;;;;;0.63;0.63;;;;;;;12.53;72.34;102645.06;5069533;28;20103;-80
2024/02/17 02:31:25;;;;;;;0.20;0.20;;;;;;;12.50;72.29;102642.44;5072093;28;20032;-80
2024/02/17 02:33:52;;;;;;;0.10;0.10;;;;;;;12.51;72.17;102644.22;5074162;28;20029;-81
2024/02/17 02:36:20;;;;;;;0.10;0.10;;;;;;;12.51;72.27;102649.53;5081849;28;20059;-81
2024/02/17 02:38:47;;;;;;;0.10;0.10;;;;;;;12.52;72.12;102651.28;5086690;28;20040;-81
2024/02/17 02:41:14;;;;;;;0.10;0.10;;;;;;;12.50;71.95;102652.16;5085683;28;20051;-81
2024/02/17 02:43:41;;;;;;;0.10;0.10;;;;;;;12.54;72.00;102660.16;5085899;28;20047;-81
2024/02/17 02:46:09;;;;;;;0.10;0.10;;;;;;;12.48;72.39;102649.50;5081298;28;20021;-80
2024/02/17 02:48:35;;;;;;;0.10;0.10;;;;;;;12.50;71.93;102663.69;5083649;28;20047;-81
2024/02/17 02:51:01;;;;;;;0.10;0.10;;;;;;;12.53;71.98;102663.69;5082296;28;20024;-80
2024/02/17 02:53:28;;;;;;;0.15;0.15;;;;;;;12.48;72.07;102670.78;5086959;28;20074;-79
2024/02/17 02:55:56;;;;;;;0.10;0.10;;;;;;;12.46;72.13;102670.78;5080135;28;20462;-81
2024/02/17 02:58:23;;;;;;;0.28;0.28;;;;;;;12.47;72.61;102671.66;5084057;28;20048;-81
2024/02/17 03:00:49;;;;;;;0.10;0.10;;;;;;;12.50;72.19;102679.66;5089074;28;20071;-80
2024/02/17 03:03:16;;;;;;;0.10;0.10;;;;;;;12.53;72.27;102682.31;5082400;28;20032;-79
2024/02/17 03:05:42;;;;;;;0.17;0.17;;;;;;;12.49;72.11;102682.31;5078847;28;20395;-80
2024/02/17 03:08:08;;;;;;;0.20;0.20;;;;;;;12.41;72.59;102684.94;5074235;28;20103;-80
2024/02/17 03:10:35;;;;;;;0.17;0.17;;;;;;;12.41;72.11;102684.94;5073336;28;20047;-80
2024/02/17 03:13:01;;;;;;;0.57;0.57;;;;;;;12.33;72.17;102682.28;5072023;28;20033;-79
2024/02/17 03:15:27;;;;;;;0.10;0.10;;;;;;;12.40;72.17;102688.47;5071236;28;20029;-79
2024/02/17 03:17:54;;;;;;;1.55;0.95;;;;;;;12.40;72.35;102688.47;5074444;28;20028;-79
2024/02/17 03:20:20;;;;;;;0.10;0.10;;;;;;;12.43;72.65;102688.50;5073193;28;20028;-79
2024/02/17 03:22:46;;;;;;;0.17;0.17;;;;;;;12.43;72.64;102684.06;5075944;28;20049;-79
2024/02/17 03:25:13;;;;;;;0.10;0.10;;;;;;;12.37;72.55;102688.47;5069090;28;20114;-80
2024/02/17 03:27:40;;;;;;;1.70;0.57;;;;;;;12.38;72.47;102691.13;5076295;28;20032;-79
2024/02/17 03:30:07;;;;;;;0.10;0.10;;;;;;;12.40;72.51;102701.78;5077218;28;20024;-79
2024/02/17 03:32:34;;;;;;;0.20;0.20;;;;;;;12.34;72.54;102709.75;5077558;28;20090;-79
2024/02/17 03:35:01;;;;;;;0.25;0.25;;;;;;;12.39;72.54;102703.56;5069511;28;20088;-79
2024/02/17 03:37:27;;;;;;;0.40;0.40;;;;;;;12.36;72.35;102708.88;5074587;28;20021;-79
2024/02/17 03:39:54;;;;;;;0.10;0.10;;;;;;;12.38;72.26;102711.53;5080335;28;20024;-78
2024/02/17 03:42:20;;;;;;;0.10;0.10;;;;;;;12.31;72.20;102710.59;5080223;28;20040;-79
2024/02/17 03:44:46;;;;;;;0.20;0.20;;;;;;;12.39;72.49;102718.63;5076671;28;20059;-79
2024/02/17 03:47:12;;;;;;;0.10;0.10;;;;;;;12.36;72.61;102718.59;5077999;28;20401;-79
2024/02/17 03:49:39;;;;;;;0.25;0.25;;;;;;;12.34;72.40;102728.38;5075159;28;20408;-79
2024/02/17 03:52:06;;;;;;;0.10;0.10;;;;;;;12.36;72.57;102726.56;5077020;28;20349;-82
2024/02/17 03:54:32;;;;;;;0.10;0.10;;;;;;;12.35;72.24;102727.44;5071633;28;20029;-80
2024/02/17 03:56:58;;;;;;;0.10;0.10;;;;;;;12.35;72.15;102732.78;5071091;28;20032;-81
2024/02/17 03:59:25;;;;;;;0.20;0.20;;;;;;;12.33;72.43;102739.88;5078626;28;20052;-81
2024/02/17 04:01:55;;;;;;;0.10;0.10;;;;;;;12.32;72.50;102748.72;5082403;28;20032;-81
2024/02/17 04:04:22;;;;;;;0.30;0.30;;;;;;;12.32;72.43;102746.94;5074876;28;20032;-82
2024/02/17 04:06:49;;;;;;;0.10;0.10;;;;;;;12.26;72.78;102745.16;5078917;28;20020;-80
2024/02/17 04:09:15;;;;;;;0.32;0.32;;;;;;;12.30;72.62;102751.38;5081297;28;20025;-81
2024/02/17 04:11:41;;;;;;;0.10;0.10;;;;;;;12.26;72.42;102753.13;5082467;28;20029;-81
2024/02/17 04:14:08;;;;;;;0.10;0.10;;;;;;;12.26;72.49;102750.47;5074770;28;20439;-80
2024/02/17 04:16:34;;;;;;;0.10;0.10;;;;;;;12.27;72.32;102762.91;5075307;28;20033;-80
2024/02/17 04:19:00;;;;;;;0.35;0.35;;;;;;;12.27;72.66;102768.22;5074322;28;20119;-80
2024/02/17 04:21:27;;;;;;;0.10;0.10;;;;;;;12.28;72.32;102767.31;5080562;28;20025;-80
2024/02/17 04:23:54;;;;;;;0.10;0.10;;;;;;;12.28;72.97;102769.97;5077237;28;20048;-79
2024/02/17 04:26:20;;;;;;;0.15;0.15;;;;;;;12.28;72.32;102769.97;5077486;28;20115;-79
2024/02/17 04:28:47;;;;;;;0.10;0.10;;;;;;;12.27;72.72;102773.53;5073293;28;20107;-79
2024/02/17 04:31:13;;;;;;;0.10;0.10;;;;;;;12.24;73.01;102770.84;5073194;28;20059;-79
2024/02/17 04:33:39;;;;;;;0.10;0.10;;;;;;;12.32;72.54;102776.19;5073532;28;20092;-81
2024/02/17 04:36:06;;;;;;;0.10;0.10;;;;;;;12.25;72.79;102775.28;5086852;28;20064;-79
2024/02/17 04:38:33;;;;;;;0.10;0.10;;;;;;;12.28;72.99;102780.59;5091777;28;20017;-80
2024/02/17 04:41:00;;;;;;;0.30;0.30;;;;;;;12.27;72.75;102781.50;5093728;28;20043;-81
2024/02/17 04:43:26;;;;;;;0.73;0.73;;;;;;;12.25;72.32;102788.56;5094194;28;20024;-81
2024/02/17 04:45:52;;;;;;;0.10;0.10;;;;;;;12.26;72.40;102787.69;5088347;28;20040;-80
2024/02/17 04:48:19;;;;;;;0.68;0.68;;;;;;;12.26;73.08;102795.66;5098060;28;20035;-80
2024/02/17 04:50:45;;;;;;;0.20;0.20;;;;;;;12.27;72.82;102809.84;5091588;28;20039;-80
2024/02/17 04:53:11;;;;;;;0.10;0.10;;;;;;;12.27;72.85;102797.44;5092604;28;20021;-80
2024/02/17 04:55:37;;;;;;;0.10;0.10;;;;;;;12.30;72.91;102810.72;5090653;28;20033;-78
2024/02/17 04:58:06;;;;;;;0.10;0.10;;;;;;;12.29;72.39;102803.63;5086345;28;20032;-79
2024/02/17 05:00:34;;;;;;;0.13;0.13;;;;;;;12.32;72.78;102812.50;5086927;28;20012;-79
2024/02/17 05:03:00;;;;;;;0.57;0.57;;;;;;;12.29;72.33;102814.28;5085220;28;20119;-80
2024/02/17 05:05:26;;;;;;;0.10;0.10;;;;;;;12.35;72.38;102817.84;5088152;28;20047;-80
2024/02/17 05:07:53;;;;;;;0.50;0.50;;;;;;;12.33;72.93;102819.63;5091922;28;20032;-79
2024/02/17 05:10:19;;;;;;;0.30;0.30;;;;;;;12.33;72.65;102820.50;5090334;28;20048;-79
2024/02/17 05:12:46;;;;;;;0.10;0.10;;;;;;;12.33;73.04;102824.94;5086065;28;20028;-79
2024/02/17 05:15:12;;;;;;;0.20;0.20;;;;;;;12.34;72.71;102832.91;5075362;28;20449;-79
2024/02/17 05:17:39;;;;;;;0.17;0.17;;;;;;;12.35;72.59;102839.09;5069937;28;20276;-78
2024/02/17 05:20:06;;;;;;;0.73;0.73;;;;;;;12.27;72.67;102847.94;5073677;28;20020;-78
2024/02/17 05:22:32;;;;;;;0.20;0.20;;;;;;;12.29;72.89;102846.16;5074677;28;20028;-78
2024/02/17 05:24:58;;;;;;;0.30;0.30;;;;;;;12.33;72.21;102852.38;5078186;28;20448;-79
2024/02/17 05:27:24;;;;;;;0.10;0.10;;;;;;;12.33;72.77;102859.50;5085925;28;20035;-78
2024/02/17 05:29:50;;;;;;;0.10;0.10;;;;;;;12.37;72.38;102858.63;5086412;28;20036;-79
2024/02/17 05:32:16;;;;;;;0.10;0.10;;;;;;;12.38;72.27;102861.28;5080891;28;20046;-80
2024/02/17 05:34:43;;;;;;;0.10;0.10;;;;;;;12.39;72.39;102868.38;5074260;28;20032;-79
2024/02/17 05:37:09;;;;;;;0.52;0.52;;;;;;;12.39;72.52;102876.34;5072960;28;20020;-79
2024/02/17 05:39:35;;;;;;;0.30;0.30;;;;;;;12.42;72.66;102878.13;5070509;28;20384;-78
2024/02/17 05:42:02;;;;;;;0.20;0.20;;;;;;;12.37;72.89;102872.78;5076131;28;20024;-78
2024/02/17 05:44:28;;;;;;;2.58;0.68;;;;;;;12.40;72.55;102879.88;5073593;28;20090;-78
2024/02/17 05:46:54;;;;;;;0.32;0.32;;;;;;;12.40;72.71;102885.19;5075625;28;20036;-79
2024/02/17 05:49:21;;;;;;;0.28;0.28;;;;;;;12.40;72.67;102895.81;5073525;28;20103;-78
2024/02/17 05:51:49;;;;;;;0.20;0.20;;;;;;;12.39;72.77;102900.28;5074677;28;20030;-78
2024/02/17 05:54:17;;;;;;;0.10;0.10;;;;;;;12.40;72.63;102898.50;5077729;28;20039;-79
2024/02/17 05:56:45;;;;;;;0.20;0.20;;;;;;;12.41;72.32;102900.28;5078180;28;20040;-79
2024/02/17 05:59:11;;;;;;;1.02;0.63;;;;;;;12.39;72.53;102899.41;5077462;28;20024;-78
2024/02/17 06:01:37;;;;;;;0.10;0.10;;;;;;;12.40;72.99;102903.81;5078197;28;20033;-79
2024/02/17 06:04:04;;;;;;;0.10;0.10;;;;;;;12.41;72.28;102905.59;5076266;28;20024;-79
2024/02/17 06:06:30;;;;;;;0.10;0.10;;;;;;;12.39;72.57;102902.06;5082864;28;20115;-79
2024/02/17 06:08:56;;;;;;;0.10;0.10;;;;;;;12.39;72.85;102902.06;5078845;28;20084;-80
2024/02/17 06:11:22;;;;;;;0.40;0.40;;;;;;;12.40;72.34;102906.47;5081630;28;20040;-79
2024/02/17 06:13:48;;;;;;;0.50;0.50;;;;;;;12.40;72.39;102903.81;5082805;28;20024;-79
2024/02/17 06:16:18;;;;;;;0.15;0.15;;;;;;;12.41;72.72;102902.94;5087879;28;20081;-79
2024/02/17 06:21:31;;;;;;;0.20;0.20;;;;;;;12.44;72.42;102909.16;5082259;28;20044;-78
2024/02/17 06:23:57;;;;;;;0.10;0.10;;;;;;;12.45;73.04;102910.06;5085072;28;20056;-78
2024/02/17 06:29:03;;;;;;;0.10;0.10;;;;;;;12.48;72.67;102920.69;5113488;27;20450;-80
2024/02/17 06:31:30;;;;;;;0.13;0.13;;;;;;;12.49;73.04;102919.81;5101904;28;20029;-79
2024/02/17 06:33:56;;;;;;;0.10;0.10;;;;;;;12.50;72.44;102926.94;5097208;28;20941;-79
2024/02/17 06:36:22;;;;;;;0.10;0.10;;;;;;;12.49;72.73;102922.47;5102008;28;20043;-79
2024/02/17 06:38:50;;;;;;;0.10;0.10;;;;;;;12.52;72.98;102932.25;5102569;28;20023;-80
2024/02/17 06:41:18;;;;;;;0.10;0.10;;;;;;;12.54;72.51;102942.00;5090102;28;20020;-79
2024/02/17 06:43:45;;;;;;;0.10;0.10;;;;;;;12.52;73.00;102943.75;5089494;28;20126;-78
2024/02/17 06:46:11;;;;;;;0.10;0.10;;;;;;;12.52;72.54;102948.19;5087623;28;20028;-79
2024/02/17 06:48:39;;;;;;;0.10;0.10;;;;;;;12.52;72.43;102949.06;5094044;28;20039;-79
2024/02/17 06:51:07;;;;;;;0.10;0.10;;;;;;;12.53;73.04;102949.97;5097265;28;20073;-78
2024/02/17 06:53:34;;;;;;;0.15;0.15;;;;;;;12.53;72.35;102955.31;5086139;28;20056;-79
2024/02/17 06:56:00;;;;;;;0.10;0.10;;;;;;;12.54;72.84;102965.06;5092029;28;20500;-78
2024/02/17 06:58:26;;;;;;;0.10;0.10;;;;;;;12.53;72.74;102966.81;5091695;28;20031;-79
2024/02/17 07:00:52;;;;;;;0.10;0.10;;;;;;;12.54;72.80;102973.91;5097095;28;20039;-78
2024/02/17 07:03:18;;;;;;;0.10;0.10;;;;;;;12.56;72.57;102987.22;5093936;28;20035;-78
2024/02/17 07:05:45;;;;;;;0.10;0.10;;;;;;;12.55;73.00;102996.97;5076084;28;20024;-79
2024/02/17 07:08:11;;;;;;;0.10;0.10;;;;;;;12.52;72.39;102999.59;5073049;28;20016;-79
2024/02/17 07:10:38;;;;;;;0.10;0.10;;;;;;;12.50;72.91;103004.03;5069492;28;20430;-78
2024/02/17 07:13:09;;;;;;;0.10;0.10;;;;;;;12.51;72.48;103011.13;5081078;28;20029;-80
2024/02/17 07:15:36;;;;;;;0.47;0.47;;;;;;;12.46;72.93;103008.44;5059667;28;20035;-79
2024/02/17 07:18:03;;;;;;;0.10;0.10;;;;;;;12.46;72.86;103018.16;5070812;28;20051;-79
2024/02/17 07:20:30;;;;;;;0.10;0.10;;;;;;;12.44;72.63;103017.28;5079633;28;20495;-79
2024/02/17 07:22:59;;;;;;;0.10;0.10;;;;;;;12.44;72.59;103019.94;5080067;28;20020;-78
2024/02/17 07:25:27;;;;;;;0.10;0.10;;;;;;;12.42;72.74;103011.06;5060000;28;20090;-83
2024/02/17 07:27:57;;;;;;;0.10;0.10;;;;;;;12.45;72.68;103011.09;5066238;28;20392;-77
2024/02/17 07:30:25;;;;;;;0.20;0.20;;;;;;;12.49;72.62;103020.88;5090622;28;20564;-79
2024/02/17 07:32:52;;;;;;;0.10;0.10;;;;;;;12.47;72.90;103025.25;5055024;28;20079;-79
2024/02/17 07:35:19;;;;;;;0.10;0.10;;;;;;;12.47;72.79;103035.91;5061924;28;20103;-79
2024/02/17 07:37:45;;;;;;;0.10;0.10;;;;;;;12.47;72.43;103033.25;5083851;28;20104;-80
2024/02/17 07:40:11;;;;;;;0.10;0.10;;;;;;;12.48;73.10;103032.38;5047322;28;20038;-79
2024/02/17 07:42:38;;;;;;;0.10;0.10;;;;;;;12.52;72.91;103036.81;5050673;28;20034;-79
2024/02/17 07:45:04;;;;;;;0.20;0.20;;;;;;;12.54;73.13;103039.50;5047284;28;20112;-79
2024/02/17 07:47:34;;;;;;;0.38;0.38;;;;;;;12.56;73.05;103043.06;5048895;28;20022;-79
2024/02/17 07:50:04;;;;;;;0.13;0.13;;;;;;;12.55;72.86;103044.84;5056286;28;20036;-80
2024/02/17 07:52:30;;;;;;;0.10;0.10;;;;;;;12.56;73.15;103054.59;5057980;28;20116;-80
2024/02/17 07:54:57;;;;;;;0.10;0.10;;;;;;;12.58;73.05;103052.81;5047532;28;20044;-79
2024/02/17 07:57:23;;;;;;;0.10;0.10;;;;;;;12.59;72.58;103057.25;5067447;28;20070;-80
2024/02/17 07:59:51;;;;;;;0.10;0.10;;;;;;;12.62;72.84;103065.28;5052046;28;20037;-80
2024/02/17 08:02:17;;;;;;;0.20;0.20;;;;;;;12.66;72.69;103067.94;5071673;28;20111;-81
2024/02/17 08:04:44;;;;;;;0.10;0.10;;;;;;;12.66;72.97;103075.94;5074270;28;20059;-79
2024/02/17 08:07:10;;;;;;;0.10;0.10;;;;;;;12.70;72.67;103085.72;5076953;28;20024;-78
2024/02/17 08:09:36;;;;;;;0.10;0.10;;;;;;;12.67;72.58;103085.69;5062454;28;20090;-79
2024/02/17 08:12:03;;;;;;;0.15;0.15;;;;;;;12.70;72.83;103091.94;5064834;28;20059;-80
2024/02/17 08:14:30;;;;;;;0.10;0.10;;;;;;;12.68;72.60;103088.34;5071964;28;20074;-80
2024/02/17 08:16:56;;;;;;;1.02;0.80;;;;;;;12.70;72.89;103083.94;5079396;28;20512;-80
2024/02/17 08:19:22;;;;;;;0.47;0.47;;;;;;;12.72;72.76;103089.28;5074574;28;20081;-81
2024/02/17 08:21:48;;;;;;;0.10;0.10;;;;;;;12.70;72.75;103091.06;5079807;28;20031;-80
2024/02/17 08:24:14;;;;;;;0.10;0.10;;;;;;;12.72;73.14;103086.59;5073326;28;20032;-80
2024/02/17 08:26:43;;;;;;;0.30;0.30;;;;;;;12.77;72.52;103088.44;5072881;28;20055;-80
2024/02/17 08:29:09;;;;;;;1.65;1.55;;;;;;;12.79;72.78;103099.97;5075382;28;20036;-81
2024/02/17 08:31:35;;;;;;;0.15;0.15;;;;;;;12.80;72.41;103114.16;5081210;28;20028;-81
2024/02/17 08:34:01;;;;;;;0.10;0.10;;;;;;;12.86;72.91;103108.88;5073809;28;20029;-80
2024/02/17 08:36:27;;;;;;;0.40;0.40;;;;;;;12.82;72.49;103115.03;5081479;28;20036;-80
2024/02/17 08:38:54;;;;;;;0.40;0.40;;;;;;;12.86;72.49;103110.63;5076266;28;20028;-81
2024/02/17 08:41:21;;;;;;;0.20;0.20;;;;;;;12.85;72.21;103120.41;5069301;28;20029;-80
2024/02/17 08:43:48;;;;;;;0.10;0.10;;;;;;;12.82;72.42;103128.34;5080333;28;20020;-81
2024/02/17 08:46:16;;;;;;;0.20;0.20;;;;;;;12.86;72.41;103122.19;5083809;28;20016;-81
2024/02/17 08:48:42;;;;;;;5.25;0.80;;;;;;;12.89;72.53;103130.19;5079867;28;20044;-81
2024/02/17 08:51:08;;;;;;;0.20;0.20;;;;;;;12.91;72.07;103139.06;5082295;28;20028;-79
2024/02/17 08:53:35;;;;;;;0.20;0.20;;;;;;;12.93;71.93;103134.66;5076751;28;20558;-80
2024/02/17 08:56:01;;;;;;;0.52;0.52;;;;;;;12.94;72.12;103122.25;5070454;28;20500;-80
2024/02/17 08:58:28;;;;;;;0.15;0.15;;;;;;;13.01;72.37;103128.47;5074357;28;20027;-79
2024/02/17 09:00:54;;;;;;;0.22;0.22;;;;;;;13.02;72.22;103124.94;5072798;28;20054;-80
2024/02/17 09:03:20;;;;;;;0.10;0.10;;;;;;;13.06;72.17;103140.03;5081008;28;20021;-81
2024/02/17 09:05:46;;;;;;;0.52;0.52;;;;;;;13.00;71.58;103153.34;5072230;28;20025;-83
2024/02/17 09:08:12;;;;;;;0.20;0.20;;;;;;;13.01;71.66;103144.44;5080124;28;20016;-82
2024/02/17 09:10:39;;;;;;;0.20;0.20;;;;;;;13.04;72.09;103142.69;5069468;28;20024;-80
2024/02/17 09:13:05;;;;;;;0.10;0.10;;;;;;;13.09;72.15;103148.06;5077223;28;20051;-80
2024/02/17 09:15:31;;;;;;;0.10;0.10;;;;;;;13.05;71.63;103146.28;5075140;28;20052;-80
2024/02/17 09:17:59;;;;;;;4.15;1.67;;;;;;;13.18;71.85;103152.56;5075873;28;20031;-78
2024/02/17 09:20:26;;;;;;;0.10;0.10;;;;;;;13.10;71.61;103165.81;5076293;28;20025;-78
2024/02/17 09:22:52;;;;;;;0.10;0.10;;;;;;;13.23;72.08;103154.38;5070523;28;20040;-79
2024/02/17 09:25:19;;;;;;;0.32;0.32;;;;;;;13.27;72.10;103150.84;5060650;28;20044;-78
2024/02/17 09:27:46;;;;;;;0.10;0.10;;;;;;;13.32;71.79;103149.97;5052789;28;20029;-78
2024/02/17 09:30:13;;;;;;;0.30;0.30;;;;;;;13.39;72.01;103163.34;5050146;28;20379;-78
2024/02/17 09:32:39;;;;;;;2.92;1.45;;;;;;;13.43;72.17;103161.59;5045360;28;20029;-78
2024/02/17 09:35:05;;;;;;;0.35;0.35;;;;;;;13.44;71.60;103155.38;5052160;28;20404;-79
2024/02/17 09:37:32;;;;;;;0.68;0.68;;;;;;;13.47;71.44;103159.84;5070137;28;20111;-78
2024/02/17 09:39:59;;;;;;;0.52;0.52;;;;;;;13.48;71.14;103157.19;5073596;28;20048;-79
2024/02/17 09:42:26;;;;;;;0.43;0.43;;;;;;;13.51;70.86;103166.97;5066386;28;20024;-79
2024/02/17 09:44:52;;;;;;;2.35;1.45;;;;;;;13.59;71.48;103168.78;5050051;28;20033;-78
2024/02/17 09:47:19;;;;;;;0.20;0.20;;;;;;;13.68;71.23;103164.38;5062184;28;20422;-80
2024/02/17 09:49:46;;;;;;;0.20;0.20;;;;;;;13.72;71.75;103161.75;5056774;28;20048;-80
2024/02/17 09:52:14;;;;;;;0.40;0.40;;;;;;;13.77;71.03;103161.75;5050780;28;20025;-80
2024/02/17 09:54:40;;;;;;;0.20;0.20;;;;;;;13.79;70.97;103169.75;5072322;28;20377;-79
2024/02/17 09:57:06;;;;;;;0.10;0.10;;;;;;;13.83;70.42;103175.09;5071807;28;20032;-80
2024/02/17 09:59:33;;;;;;;0.20;0.20;;;;;;;13.86;70.45;103175.09;5054370;28;20029;-80
2024/02/17 10:01:59;;;;;;;0.10;0.10;;;;;;;13.91;71.14;103173.34;5052045;28;20033;-80
2024/02/17 10:04:25;;;;;;;0.43;0.43;;;;;;;13.93;70.50;103180.47;5057301;28;20570;-78
2024/02/17 10:07:00;;;;;;;0.20;0.20;;;;;;;14.02;70.55;103177.84;5044677;28;20029;-79
2024/02/17 10:09:28;;;;;;;0.10;0.10;;;;;;;14.03;70.52;103176.94;5053330;28;20026;-78
2024/02/17 10:11:55;;;;;;;0.05;0.05;;;;;;;14.07;70.22;103178.75;5063670;28;20088;-78
2024/02/17 10:14:23;;;;;;;0.20;0.20;;;;;;;14.14;70.14;103175.19;5073674;28;20043;-78
2024/02/17 10:16:57;;;;;;;0.65;0.65;;;;;;;14.19;69.06;103173.44;5078610;28;20126;-78
2024/02/17 10:19:24;;;;;;;0.43;0.43;;;;;;;14.26;69.75;103177.00;5078677;28;20051;-78
2024/02/17 10:21:51;;;;;;;0.22;0.22;;;;;;;14.32;69.69;103178.78;5074518;28;20036;-79
2024/02/17 10:24:21;;;;;;;1.02;1.02;;;;;;;14.33;69.38;103185.88;5078004;28;20484;-78
2024/02/17 10:26:51;;;;;;;0.28;0.28;;;;;;;14.36;69.83;103189.44;5078554;28;20025;-78
2024/02/17 10:29:18;;;;;;;0.85;0.85;;;;;;;14.33;69.13;103193.88;5068958;28;20029;-80
2024/02/17 10:31:47;;;;;;;0.10;0.10;;;;;;;14.41;69.69;103194.81;5076038;28;20114;-80
2024/02/17 10:34:14;;;;;;;0.45;0.45;;;;;;;14.45;69.74;103201.91;5074643;28;20047;-79
2024/02/17 10:36:41;;;;;;;0.10;0.10;;;;;;;14.51;70.06;103207.25;5072946;28;20115;-79
2024/02/17 10:39:08;;;;;;;0.90;0.85;;;;;;;14.55;69.17;103209.06;5077439;28;20044;-79
2024/02/17 10:41:35;;;;;;;0.45;0.45;;;;;;;14.60;68.36;103213.50;5071227;28;20017;-80
2024/02/17 10:44:02;;;;;;;0.30;0.30;;;;;;;14.62;68.39;103217.94;5069194;28;20045;-80
2024/02/17 10:46:30;;;;;;;0.10;0.10;;;;;;;14.61;68.22;103226.84;5077649;28;20036;-79
2024/02/17 10:52:10;;;;;;;0.10;0.10;;;;;;;14.63;67.71;103226.81;5078485;28;20398;-80
2024/02/17 10:54:48;;;;;;;0.88;0.88;;;;;;;14.65;67.97;103227.75;5079320;28;20028;-80
2024/02/17 10:57:17;;;;;;;0.63;0.63;;;;;;;14.61;68.43;103232.16;5061390;28;20064;-80
2024/02/17 10:59:45;;;;;;;1.25;1.17;;;;;;;14.55;67.27;103227.75;5063200;28;20119;-79
2024/02/17 11:02:19;;;;;;;0.20;0.20;;;;;;;14.71;68.84;103227.78;5061433;28;20033;-79
2024/02/17 11:04:46;;;;;;;0.50;0.50;;;;;;;14.67;68.11;103237.56;5060190;28;20501;-79
2024/02/17 11:07:14;;;;;;;1.80;1.70;;;;;;;14.69;68.22;103242.88;5057258;28;20029;-80
2024/02/17 11:09:41;;;;;;;0.10;0.10;;;;;;;14.68;67.78;103249.13;5052120;28;20039;-79
2024/02/17 11:15:09;;;;;;;0.10;0.10;;;;;;;14.69;68.10;103258.88;5101844;27;20401;-80
2024/02/17 11:17:41;;;;;;;0.20;0.20;;;;;;;14.75;68.02;103260.69;5098912;28;20028;-79
2024/02/17 11:20:12;;;;;;;0.40;0.40;;;;;;;14.81;67.95;103263.38;5099974;28;20021;-79
2024/02/17 11:22:41;;;;;;;0.63;0.63;;;;;;;14.78;67.64;103269.59;5099973;28;20028;-80
2024/02/17 11:25:09;;;;;;;0.20;0.20;;;;;;;14.80;67.47;103266.91;5098144;28;20049;-80
2024/02/17 11:27:36;;;;;;;0.75;0.75;;;;;;;14.79;67.06;103262.47;5100842;28;20088;-80
2024/02/17 11:30:06;;;;;;;1.35;0.38;;;;;;;14.88;67.52;103260.69;5087397;28;20036;-80
2024/02/17 11:32:32;;;;;;;0.20;0.20;;;;;;;14.90;67.07;103267.81;5085403;28;20402;-79
2024/02/17 11:35:02;;;;;;;1.67;1.25;;;;;;;14.88;66.61;103266.03;5079096;28;20036;-79